Time;durP1;ratioP1;P1;durP2;ratioP2;P2;SDS_P1;SDS_P2;PMS_P1;PMS_P2;Temp;Humidity;BMP_temperature;BMP_pressure;BME280_temperature;BME280_humidity;BME280_pressure;Samples;Min_cycle;Max_cycle;Signal;HPM_P1;HPM_P2
2023/06/12 00:01:14;;;;;;;4.88;3.90;;;26.00;1.00;;;;;;4878392;29;20108;-48
2023/06/12 00:03:43;;;;;;;4.53;4.13;;;26.00;1.00;;;;;;4878956;29;20048;-49
2023/06/12 00:06:11;;;;;;;6.07;3.72;;;26.00;1.00;;;;;;4882355;29;20493;-49
2023/06/12 00:08:41;;;;;;;4.38;3.97;;;26.00;1.00;;;;;;4882430;29;20089;-47
2023/06/12 00:11:12;;;;;;;5.47;3.90;;;26.00;1.00;;;;;;4881261;29;20056;-47
2023/06/12 00:13:41;;;;;;;6.10;4.40;;;26.00;1.00;;;;;;4885437;29;20535;-53
2023/06/12 00:16:09;;;;;;;6.05;3.72;;;26.00;1.00;;;;;;4883063;29;20041;-49
2023/06/12 00:18:38;;;;;;;5.32;3.75;;;26.00;1.00;;;;;;4882784;29;20128;-51
2023/06/12 00:21:09;;;;;;;5.70;3.67;;;26.00;1.00;;;;;;4881621;29;20131;-53
2023/06/12 00:23:37;;;;;;;9.90;4.13;;;26.00;1.00;;;;;;4882277;29;20405;-48
2023/06/12 00:26:04;;;;;;;6.25;3.83;;;26.00;1.00;;;;;;4882238;29;20472;-49
2023/06/12 00:28:31;;;;;;;6.88;4.68;;;26.00;1.00;;;;;;4881801;29;20120;-49
2023/06/12 00:30:59;;;;;;;5.15;3.35;;;26.00;1.00;;;;;;4881966;29;20136;-47
2023/06/12 00:33:26;;;;;;;5.40;3.90;;;26.00;1.00;;;;;;4882218;29;20053;-52
2023/06/12 00:35:53;;;;;;;4.57;3.92;;;25.90;1.00;;;;;;4896079;29;20068;-48
2023/06/12 00:38:21;;;;;;;6.75;4.55;;;25.90;1.00;;;;;;4880441;29;20075;-48
2023/06/12 00:40:48;;;;;;;5.07;4.05;;;25.90;1.00;;;;;;4881294;29;20041;-50
2023/06/12 00:43:16;;;;;;;4.63;3.47;;;25.90;1.00;;;;;;4880544;29;20052;-48
2023/06/12 00:45:43;;;;;;;7.00;4.00;;;25.90;1.00;;;;;;4880125;29;20401;-46
2023/06/12 00:48:11;;;;;;;4.85;3.92;;;25.90;1.00;;;;;;4881709;29;20037;-49
2023/06/12 00:50:39;;;;;;;5.20;4.70;;;25.90;1.00;;;;;;4881116;29;20037;-49
2023/06/12 00:53:07;;;;;;;6.22;4.60;;;25.90;1.00;;;;;;4881670;29;20124;-50
2023/06/12 00:55:35;;;;;;;5.88;4.50;;;25.90;1.00;;;;;;4880155;29;20068;-47
2023/06/12 00:58:03;;;;;;;4.68;3.80;;;25.90;1.00;;;;;;4881750;29;20052;-51
2023/06/12 01:00:30;;;;;;;7.35;4.53;;;25.90;1.00;;;;;;4879723;29;20045;-51
2023/06/12 01:03:04;;;;;;;4.72;3.50;;;25.90;1.00;;;;;;4879785;29;20571;-50
2023/06/12 01:05:42;;;;;;;4.63;3.83;;;25.90;1.00;;;;;;4865476;29;20431;-50
2023/06/12 01:08:28;;;;;;;5.57;4.13;;;25.90;1.00;;;;;;4895560;29;20045;-48
2023/06/12 01:11:05;;;;;;;5.55;4.25;;;25.90;1.00;;;;;;4879458;29;20049;-48
2023/06/12 01:13:33;;;;;;;4.68;3.92;;;25.90;1.00;;;;;;4879766;29;20060;-48
2023/06/12 01:16:00;;;;;;;5.22;4.05;;;25.90;1.00;;;;;;4879288;29;20041;-51
2023/06/12 01:18:29;;;;;;;4.82;3.67;;;25.90;1.00;;;;;;4881033;29;20064;-50
2023/06/12 01:20:58;;;;;;;4.68;4.18;;;25.90;1.00;;;;;;4879123;29;20065;-49
2023/06/12 01:23:39;;;;;;;5.88;3.60;;;25.90;1.00;;;;;;4880813;29;20056;-48
2023/06/12 01:26:45;;;;;;;6.28;3.97;;;25.80;1.00;;;;;;4879103;29;20071;-47
2023/06/12 01:29:51;;;;;;;8.15;3.90;;;25.80;1.00;;;;;;4879012;29;20129;-49
2023/06/12 01:32:20;;;;;;;5.85;4.22;;;25.80;1.00;;;;;;4878949;29;20090;-49
2023/06/12 01:34:57;;;;;;;4.75;4.20;;;25.80;1.00;;;;;;4879247;29;20059;-49
2023/06/12 01:38:01;;;;;;;4.50;3.63;;;25.80;1.00;;;;;;4879115;29;20045;-47
2023/06/12 01:40:29;;;;;;;5.32;4.30;;;25.80;1.00;;;;;;4878731;29;20060;-48
2023/06/12 01:42:57;;;;;;;4.20;3.60;;;25.80;1.00;;;;;;4879033;29;20041;-47
2023/06/12 01:45:25;;;;;;;4.32;3.38;;;25.80;1.00;;;;;;4879262;29;20053;-48
2023/06/12 01:47:52;;;;;;;4.47;4.03;;;25.80;1.00;;;;;;4879127;29;20065;-47
2023/06/12 01:50:21;;;;;;;4.57;3.35;;;25.80;1.00;;;;;;4878943;29;20041;-48
2023/06/12 01:52:49;;;;;;;4.88;3.83;;;25.80;1.00;;;;;;4894374;29;20041;-51
2023/06/12 01:55:19;;;;;;;6.68;3.92;;;25.80;1.00;;;;;;4878955;29;20045;-48
2023/06/12 01:57:48;;;;;;;4.47;3.47;;;25.80;1.00;;;;;;4878893;29;20055;-48
2023/06/12 02:00:19;;;;;;;4.93;3.92;;;25.70;1.00;;;;;;4878698;29;20417;-47
2023/06/12 02:02:46;;;;;;;4.55;4.15;;;25.70;1.00;;;;;;4880004;29;20060;-46
2023/06/12 02:05:16;;;;;;;5.32;3.92;;;25.70;1.00;;;;;;4878699;29;20100;-46
2023/06/12 02:07:43;;;;;;;4.00;3.58;;;25.70;1.00;;;;;;4878663;29;20048;-48
2023/06/12 02:10:10;;;;;;;5.07;4.15;;;25.70;1.00;;;;;;4878364;29;20049;-48
2023/06/12 02:12:37;;;;;;;4.57;3.47;;;25.70;1.00;;;;;;4878303;29;20443;-50
2023/06/12 02:15:05;;;;;;;4.35;3.40;;;25.70;1.00;;;;;;4878624;29;20532;-47
2023/06/12 02:17:33;;;;;;;7.05;4.78;;;25.70;1.00;;;;;;4879853;29;20180;-47
2023/06/12 02:20:02;;;;;;;4.63;3.75;;;25.70;1.00;;;;;;4893685;29;20055;-48
2023/06/12 02:22:29;;;;;;;6.25;3.90;;;25.70;1.00;;;;;;4879737;29;20565;-52
2023/06/12 02:24:56;;;;;;;4.22;3.45;;;25.70;1.00;;;;;;4878402;29;20580;-47
2023/06/12 02:27:25;;;;;;;5.03;4.28;;;25.70;1.00;;;;;;4877753;29;20053;-49
2023/06/12 02:29:52;;;;;;;6.75;3.90;;;25.70;1.00;;;;;;4879177;29;20378;-48
2023/06/12 02:32:19;;;;;;;7.57;3.90;;;25.70;1.00;;;;;;4877994;29;20057;-48
2023/06/12 02:34:48;;;;;;;5.10;3.75;;;25.70;1.00;;;;;;4878125;29;20139;-47
2023/06/12 02:37:15;;;;;;;4.70;3.90;;;25.70;1.00;;;;;;4878102;29;20144;-47
2023/06/12 02:39:44;;;;;;;4.22;3.22;;;25.70;1.00;;;;;;4878013;29;20505;-48
2023/06/12 02:42:11;;;;;;;5.00;3.60;;;25.70;1.00;;;;;;4879148;29;20482;-47
2023/06/12 02:44:39;;;;;;;3.92;3.47;;;25.70;1.00;;;;;;4878157;29;20505;-48
2023/06/12 02:47:07;;;;;;;5.22;3.95;;;25.70;1.00;;;;;;4878013;29;20045;-48
2023/06/12 02:49:44;;;;;;;5.03;3.42;;;25.70;1.00;;;;;;4877891;29;20073;-47
2023/06/12 02:52:15;;;;;;;3.85;3.38;;;25.70;1.00;;;;;;4878231;29;20425;-48
2023/06/12 02:54:41;;;;;;;5.18;3.85;;;25.70;1.00;;;;;;4877794;29;20056;-47
2023/06/12 02:57:08;;;;;;;4.38;3.58;;;25.60;1.00;;;;;;4877621;29;20059;-50
2023/06/12 02:59:35;;;;;;;8.35;3.85;;;25.60;1.00;;;;;;4877579;29;20066;-47
2023/06/12 03:02:08;;;;;;;4.57;4.00;;;25.60;1.00;;;;;;4877463;29;20394;-46
2023/06/12 03:04:39;;;;;;;4.70;3.90;;;25.70;1.00;;;;;;4880446;29;20144;-48
2023/06/12 03:07:07;;;;;;;4.00;3.25;;;25.60;1.00;;;;;;4877579;29;20501;-47
2023/06/12 03:09:34;;;;;;;4.40;3.53;;;25.60;1.00;;;;;;4878801;29;20055;-47
2023/06/12 03:12:02;;;;;;;5.32;3.63;;;25.60;1.00;;;;;;4876691;29;20474;-47
2023/06/12 03:14:29;;;;;;;4.68;4.22;;;25.60;1.00;;;;;;4876633;29;20049;-48
2023/06/12 03:16:57;;;;;;;4.88;4.32;;;25.60;1.00;;;;;;4876948;29;20481;-47
2023/06/12 03:19:24;;;;;;;5.18;3.95;;;25.60;1.00;;;;;;4877528;29;20136;-47
2023/06/12 03:21:51;;;;;;;5.15;3.95;;;25.60;1.00;;;;;;4877058;29;20041;-47
2023/06/12 03:24:19;;;;;;;5.28;3.42;;;25.60;1.00;;;;;;4878272;29;20074;-47
2023/06/12 03:26:47;;;;;;;4.03;2.97;;;25.60;1.00;;;;;;4878325;29;20096;-47
2023/06/12 03:29:14;;;;;;;5.45;4.25;;;25.60;1.00;;;;;;4878697;29;20053;-47
2023/06/12 03:31:41;;;;;;;7.88;4.15;;;25.60;1.00;;;;;;4876776;29;20564;-47
2023/06/12 03:34:08;;;;;;;4.00;3.60;;;25.60;1.00;;;;;;4877314;29;20074;-47
2023/06/12 03:36:37;;;;;;;5.55;3.30;;;25.50;1.00;;;;;;4877506;29;20052;-47
2023/06/12 03:39:09;;;;;;;6.50;3.70;;;25.50;1.00;;;;;;4877097;29;20211;-47
2023/06/12 03:41:50;;;;;;;4.60;3.35;;;25.50;1.00;;;;;;4877143;29;20065;-46
2023/06/12 03:44:17;;;;;;;4.93;3.67;;;25.50;1.00;;;;;;4877418;29;20045;-48
2023/06/12 03:46:44;;;;;;;5.75;3.90;;;25.50;1.00;;;;;;4877232;29;20525;-49
2023/06/12 03:49:11;;;;;;;8.63;3.92;;;25.50;1.00;;;;;;4877092;29;20513;-47
2023/06/12 03:51:39;;;;;;;6.03;3.45;;;25.50;1.00;;;;;;4877172;29;20076;-48
2023/06/12 03:54:07;;;;;;;5.18;3.80;;;25.50;1.00;;;;;;4878744;29;20110;-48
2023/06/12 03:56:34;;;;;;;5.10;4.50;;;25.50;1.00;;;;;;4877251;29;20053;-48
2023/06/12 03:59:01;;;;;;;5.00;4.13;;;25.50;1.00;;;;;;4877236;29;20045;-48
2023/06/12 04:01:29;;;;;;;4.68;4.03;;;25.50;1.00;;;;;;4876982;29;20104;-47
2023/06/12 04:03:55;;;;;;;5.22;4.10;;;25.50;1.00;;;;;;4876935;29;20079;-46
2023/06/12 04:06:24;;;;;;;5.38;3.92;;;25.50;1.00;;;;;;4880424;29;20045;-48
2023/06/12 04:08:54;;;;;;;4.93;3.67;;;25.40;1.00;;;;;;4874843;29;20099;-46
2023/06/12 04:11:21;;;;;;;5.38;3.47;;;25.40;1.00;;;;;;4875986;29;20064;-48
2023/06/12 04:13:48;;;;;;;5.63;4.18;;;25.40;1.00;;;;;;4869833;29;20077;-47
2023/06/12 04:16:15;;;;;;;4.88;3.63;;;25.40;1.00;;;;;;4877965;29;20132;-46
2023/06/12 04:18:42;;;;;;;6.40;3.85;;;25.40;1.00;;;;;;4876628;29;20136;-50
2023/06/12 04:21:09;;;;;;;7.15;4.30;;;25.40;1.00;;;;;;4876772;29;20486;-48
2023/06/12 04:23:37;;;;;;;13.77;4.82;;;25.40;1.00;;;;;;4878562;29;20063;-47
2023/06/12 04:26:04;;;;;;;14.23;4.00;;;25.40;1.00;;;;;;4878074;29;20065;-47
2023/06/12 04:28:38;;;;;;;9.02;3.92;;;25.30;1.00;;;;;;4877268;29;20124;-48
2023/06/12 04:31:05;;;;;;;9.38;4.57;;;25.30;1.00;;;;;;4877188;29;20397;-47
2023/06/12 04:33:32;;;;;;;14.18;3.95;;;25.30;1.00;;;;;;4876977;29;20045;-47
2023/06/12 04:36:02;;;;;;;10.70;3.67;;;25.30;1.00;;;;;;4877146;29;20053;-48
2023/06/12 04:38:36;;;;;;;12.65;4.15;;;25.30;1.00;;;;;;4877309;29;20048;-47
2023/06/12 04:41:05;;;;;;;9.68;3.22;;;25.30;1.00;;;;;;4877057;29;20064;-47
2023/06/12 04:43:33;;;;;;;6.55;3.55;;;25.30;1.00;;;;;;4876890;29;20150;-46
2023/06/12 04:46:00;;;;;;;7.18;4.00;;;25.30;1.00;;;;;;4879250;29;20442;-49
2023/06/12 04:48:27;;;;;;;8.57;3.42;;;25.30;1.00;;;;;;4877084;29;20528;-47
2023/06/12 04:50:54;;;;;;;8.30;3.70;;;25.30;1.00;;;;;;4876758;29;20485;-47
2023/06/12 04:53:27;;;;;;;10.23;3.42;;;25.30;1.00;;;;;;4879833;29;20443;-47
2023/06/12 04:55:56;;;;;;;5.30;3.58;;;25.30;1.00;;;;;;4879517;29;20132;-46
2023/06/12 04:58:24;;;;;;;8.10;3.75;;;25.30;1.00;;;;;;4878972;29;20084;-48
2023/06/12 05:00:55;;;;;;;8.10;4.10;;;25.30;1.00;;;;;;4880167;29;20049;-47
2023/06/12 05:03:22;;;;;;;6.22;3.80;;;25.30;1.00;;;;;;4880096;29;20044;-47
2023/06/12 05:05:55;;;;;;;6.72;3.72;;;25.30;1.00;;;;;;4895969;29;20186;-48
2023/06/12 05:08:22;;;;;;;8.43;3.67;;;25.30;1.00;;;;;;4880444;29;20036;-50
2023/06/12 05:10:50;;;;;;;4.97;3.88;;;25.30;1.00;;;;;;4872702;29;20533;-47
2023/06/12 05:13:18;;;;;;;7.53;3.80;;;25.20;1.00;;;;;;4880672;29;20068;-47
2023/06/12 05:15:45;;;;;;;6.30;3.90;;;25.30;1.00;;;;;;4880929;29;20072;-47
2023/06/12 05:18:13;;;;;;;5.63;3.63;;;25.20;1.00;;;;;;4880404;29;20045;-49
2023/06/12 05:20:40;;;;;;;6.13;3.53;;;25.30;1.00;;;;;;4896338;29;20053;-47
2023/06/12 05:23:07;;;;;;;6.07;3.17;;;25.20;1.00;;;;;;4880335;29;20667;-48
2023/06/12 05:25:34;;;;;;;7.50;4.43;;;25.20;1.00;;;;;;4880476;29;20041;-48
2023/06/12 05:28:03;;;;;;;7.22;3.72;;;25.20;1.00;;;;;;4880647;29;20045;-49
2023/06/12 05:30:31;;;;;;;5.85;3.60;;;25.20;1.00;;;;;;4879728;29;20045;-47
2023/06/12 05:33:00;;;;;;;5.15;3.05;;;25.20;1.00;;;;;;4879950;29;20049;-48
2023/06/12 05:35:27;;;;;;;8.30;3.35;;;25.20;1.00;;;;;;4895958;29;20617;-47
2023/06/12 05:37:54;;;;;;;7.03;4.47;;;25.20;1.00;;;;;;4879931;29;20052;-47
2023/06/12 05:40:21;;;;;;;5.85;3.75;;;25.20;1.00;;;;;;4881348;29;20049;-47
2023/06/12 05:42:48;;;;;;;6.13;4.07;;;25.20;1.00;;;;;;4879897;29;20310;-49
2023/06/12 05:45:15;;;;;;;5.30;2.95;;;25.20;1.00;;;;;;4879986;29;20470;-49
2023/06/12 05:47:42;;;;;;;8.70;3.03;;;25.20;1.00;;;;;;4879433;29;20080;-46
2023/06/12 05:50:09;;;;;;;5.90;3.22;;;25.20;1.00;;;;;;4879258;29;20045;-49
2023/06/12 05:52:36;;;;;;;4.68;3.65;;;25.20;1.00;;;;;;4878970;29;20497;-48
2023/06/12 05:55:06;;;;;;;6.45;3.50;;;25.20;1.00;;;;;;4879219;29;20064;-48
2023/06/12 05:57:34;;;;;;;4.40;2.85;;;25.20;1.00;;;;;;4879473;29;20519;-49
2023/06/12 06:00:02;;;;;;;4.57;3.08;;;25.20;1.00;;;;;;4879434;29;20072;-47
2023/06/12 06:02:42;;;;;;;5.93;2.92;;;25.30;1.00;;;;;;4880440;29;20045;-47
2023/06/12 06:05:18;;;;;;;3.97;3.17;;;25.20;1.00;;;;;;4896095;29;20061;-49
2023/06/12 06:07:50;;;;;;;4.82;2.80;;;25.20;1.00;;;;;;4894802;29;20048;-48
2023/06/12 06:10:17;;;;;;;6.00;3.45;;;25.30;1.00;;;;;;4879039;29;20049;-48
2023/06/12 06:12:45;;;;;;;5.63;3.00;;;25.30;1.00;;;;;;4878963;29;20132;-48
2023/06/12 06:15:13;;;;;;;7.68;3.60;;;25.30;1.00;;;;;;4879297;29;20663;-47
2023/06/12 06:17:41;;;;;;;3.10;2.53;;;25.30;1.00;;;;;;4878627;29;20057;-48
2023/06/12 06:20:11;;;;;;;10.30;3.55;;;25.30;1.00;;;;;;4878474;29;20143;-46
2023/06/12 06:22:37;;;;;;;6.35;3.28;;;25.30;1.00;;;;;;4879759;29;20057;-49
2023/06/12 06:25:05;;;;;;;3.70;3.25;;;25.30;1.00;;;;;;4878812;29;20045;-46
2023/06/12 06:27:32;;;;;;;5.85;2.70;;;25.30;1.00;;;;;;4878808;29;20056;-49
2023/06/12 06:29:59;;;;;;;7.35;2.88;;;25.30;1.00;;;;;;4879077;29;20421;-47
2023/06/12 06:32:26;;;;;;;3.90;2.75;;;25.30;1.00;;;;;;4879558;29;20057;-47
2023/06/12 06:34:53;;;;;;;4.15;2.88;;;25.30;1.00;;;;;;4871348;29;20493;-47
2023/06/12 06:37:20;;;;;;;5.00;2.90;;;25.40;1.00;;;;;;4879708;29;20093;-47
2023/06/12 06:39:47;;;;;;;5.00;2.50;;;25.40;1.00;;;;;;4879330;29;20158;-48
2023/06/12 06:42:14;;;;;;;4.30;2.63;;;25.40;1.00;;;;;;4878795;29;20499;-47
2023/06/12 06:44:51;;;;;;;4.18;2.60;;;25.40;1.00;;;;;;4879065;29;20341;-48
2023/06/12 06:47:20;;;;;;;5.82;2.67;;;25.40;1.00;;;;;;4880246;29;20124;-49
2023/06/12 06:49:47;;;;;;;3.65;2.45;;;25.40;1.00;;;;;;4878354;29;20045;-47
2023/06/12 06:52:17;;;;;;;3.50;2.47;;;25.40;1.00;;;;;;4878407;29;20513;-47
2023/06/12 06:54:44;;;;;;;6.53;2.95;;;25.40;1.00;;;;;;4878323;29;20416;-48
2023/06/12 06:57:13;;;;;;;5.05;3.53;;;25.40;1.00;;;;;;4878027;29;20090;-46
2023/06/12 06:59:40;;;;;;;7.38;3.10;;;25.40;1.00;;;;;;4877972;29;20145;-46
2023/06/12 07:02:07;;;;;;;5.32;3.25;;;25.40;1.00;;;;;;4879605;29;20463;-46
2023/06/12 07:04:34;;;;;;;3.58;2.85;;;25.40;1.00;;;;;;4882864;29;20131;-47
2023/06/12 07:07:01;;;;;;;4.03;2.85;;;25.40;1.00;;;;;;4878632;29;20041;-48
2023/06/12 07:09:28;;;;;;;3.25;2.65;;;25.40;1.00;;;;;;4885841;29;20037;-48
2023/06/12 07:11:55;;;;;;;3.40;2.55;;;25.50;1.00;;;;;;4877827;29;20049;-47
2023/06/12 07:14:22;;;;;;;3.33;2.53;;;25.50;1.00;;;;;;4877895;29;20148;-48
2023/06/12 07:16:49;;;;;;;4.38;2.80;;;25.50;1.00;;;;;;4878036;29;20056;-47
2023/06/12 07:19:16;;;;;;;4.72;2.80;;;25.50;1.00;;;;;;4878008;29;20355;-47
2023/06/12 07:21:43;;;;;;;4.57;3.22;;;25.50;1.00;;;;;;4877966;29;20172;-46
2023/06/12 07:24:12;;;;;;;3.42;2.72;;;25.50;1.00;;;;;;4877819;29;20048;-46
2023/06/12 07:26:39;;;;;;;4.55;2.67;;;25.50;1.00;;;;;;4877724;29;20121;-47
2023/06/12 07:29:06;;;;;;;6.00;2.85;;;25.50;1.00;;;;;;4879106;29;20509;-46
2023/06/12 07:31:33;;;;;;;4.78;2.63;;;25.50;1.00;;;;;;4862243;29;20052;-49
2023/06/12 07:34:01;;;;;;;3.58;2.38;;;25.50;1.00;;;;;;4870412;29;20473;-47
2023/06/12 07:36:35;;;;;;;3.90;2.67;;;25.60;1.00;;;;;;4878529;29;20149;-51
2023/06/12 07:39:03;;;;;;;4.63;2.53;;;25.60;1.00;;;;;;4878080;29;20139;-46
2023/06/12 07:41:30;;;;;;;7.00;2.47;;;25.60;1.00;;;;;;4878093;29;20060;-48
2023/06/12 07:43:57;;;;;;;3.30;2.45;;;25.60;1.00;;;;;;4879482;29;20077;-50
2023/06/12 07:46:25;;;;;;;3.65;2.45;;;25.60;1.00;;;;;;4878063;29;20467;-46
2023/06/12 07:48:52;;;;;;;4.45;2.88;;;25.60;1.00;;;;;;4878349;29;20060;-50
2023/06/12 07:51:20;;;;;;;5.13;2.42;;;25.60;1.00;;;;;;4893337;29;20049;-50
2023/06/12 07:53:49;;;;;;;5.65;2.30;;;25.60;1.00;;;;;;4878144;29;20113;-47
2023/06/12 07:56:18;;;;;;;4.07;2.63;;;25.60;1.00;;;;;;4877757;29;20116;-46
2023/06/12 07:58:47;;;;;;;3.83;2.75;;;25.60;1.00;;;;;;4877567;29;20202;-48
2023/06/12 08:01:15;;;;;;;6.90;2.42;;;25.60;1.00;;;;;;4877810;29;20060;-46
2023/06/12 08:03:43;;;;;;;4.82;2.63;;;25.60;1.00;;;;;;4893569;29;20041;-48
2023/06/12 08:06:12;;;;;;;3.97;2.75;;;25.70;1.00;;;;;;4878129;29;20048;-46
2023/06/12 08:08:44;;;;;;;3.13;2.30;;;25.70;1.00;;;;;;4878169;29;20513;-47
2023/06/12 08:11:13;;;;;;;5.20;2.13;;;25.70;1.00;;;;;;4877630;29;20041;-49
2023/06/12 08:13:42;;;;;;;3.45;2.35;;;25.70;1.00;;;;;;4877982;29;20144;-47
2023/06/12 08:16:10;;;;;;;5.93;3.22;;;25.70;1.00;;;;;;4877759;29;20462;-48
2023/06/12 08:18:37;;;;;;;5.43;2.65;;;25.70;1.00;;;;;;4877533;29;20049;-46
2023/06/12 08:21:04;;;;;;;3.15;2.50;;;25.70;1.00;;;;;;4877289;29;20045;-46
2023/06/12 08:23:31;;;;;;;3.10;2.13;;;25.70;1.00;;;;;;4877747;29;20133;-48
2023/06/12 08:25:58;;;;;;;2.30;2.05;;;25.70;1.00;;;;;;4877779;29;20075;-46
2023/06/12 08:28:25;;;;;;;7.03;3.60;;;25.70;1.00;;;;;;4881517;29;20520;-47
2023/06/12 08:30:57;;;;;;;3.60;2.05;;;25.70;1.00;;;;;;4881015;29;20140;-49
2023/06/12 08:33:25;;;;;;;4.22;2.70;;;25.70;1.00;;;;;;4881454;29;20049;-47
2023/06/12 08:35:52;;;;;;;6.05;3.17;;;25.70;1.00;;;;;;4881524;29;20061;-47
2023/06/12 08:38:19;;;;;;;3.70;2.45;;;25.70;1.00;;;;;;4888503;29;20136;-51
2023/06/12 08:40:47;;;;;;;2.88;2.15;;;25.80;1.00;;;;;;4896408;29;20048;-47
2023/06/12 08:43:14;;;;;;;3.28;2.22;;;25.80;1.00;;;;;;4882292;29;20055;-51
2023/06/12 08:45:51;;;;;;;4.00;2.85;;;25.80;1.00;;;;;;4882737;29;20438;-47
2023/06/12 08:48:20;;;;;;;2.65;2.20;;;25.80;1.00;;;;;;4881852;29;20041;-47
2023/06/12 08:50:47;;;;;;;4.25;2.30;;;25.80;1.00;;;;;;4881462;29;20132;-47
2023/06/12 08:53:15;;;;;;;4.40;2.65;;;25.80;1.00;;;;;;4881869;29;20505;-46
2023/06/12 08:55:44;;;;;;;3.40;2.28;;;25.80;1.00;;;;;;4882000;29;20120;-47
2023/06/12 08:58:11;;;;;;;4.35;2.58;;;25.80;1.00;;;;;;4881382;29;20125;-46
2023/06/12 09:00:38;;;;;;;3.97;2.33;;;25.80;1.00;;;;;;4881340;29;20082;-47
2023/06/12 09:03:06;;;;;;;3.05;2.33;;;25.80;1.00;;;;;;4881735;29;20124;-46
2023/06/12 09:05:38;;;;;;;3.58;2.40;;;25.80;1.00;;;;;;4886029;29;20089;-48
2023/06/12 09:08:05;;;;;;;3.35;2.65;;;25.80;1.00;;;;;;4881522;29;20450;-46
2023/06/12 09:10:34;;;;;;;4.60;2.45;;;25.80;1.00;;;;;;4879803;29;20056;-47
2023/06/12 09:13:08;;;;;;;3.45;2.55;;;25.80;1.00;;;;;;4880146;29;20460;-48
2023/06/12 09:15:35;;;;;;;3.83;2.72;;;25.80;1.00;;;;;;4881769;29;20100;-46
2023/06/12 09:18:10;;;;;;;4.30;2.63;;;25.80;1.00;;;;;;4873952;29;20120;-46
2023/06/12 09:20:39;;;;;;;4.60;2.65;;;25.90;1.00;;;;;;4881464;29;20057;-46
2023/06/12 09:23:11;;;;;;;7.05;2.30;;;25.90;1.00;;;;;;4881368;29;20386;-45
2023/06/12 09:25:42;;;;;;;4.20;2.53;;;25.80;1.00;;;;;;4881723;29;20073;-47
2023/06/12 09:28:36;;;;;;;3.17;2.78;;;25.80;1.00;;;;;;4881257;29;20095;-46
2023/06/12 09:31:04;;;;;;;3.80;2.70;;;25.90;1.00;;;;;;4881193;29;20044;-48
2023/06/12 09:33:31;;;;;;;3.10;2.28;;;25.90;1.00;;;;;;4881020;29;20053;-47
2023/06/12 09:35:59;;;;;;;4.80;2.55;;;25.90;1.00;;;;;;4881301;29;20405;-48
2023/06/12 09:38:34;;;;;;;8.02;2.47;;;25.90;1.00;;;;;;4879454;29;20049;-47
2023/06/12 09:41:03;;;;;;;3.72;2.35;;;25.90;1.00;;;;;;4880715;29;20053;-46
2023/06/12 09:43:31;;;;;;;3.65;2.97;;;25.90;1.00;;;;;;4880988;29;20056;-48
2023/06/12 09:46:02;;;;;;;4.45;2.17;;;25.90;1.00;;;;;;4880798;29;20049;-46
2023/06/12 09:48:36;;;;;;;2.67;2.08;;;25.90;1.00;;;;;;4880709;29;20065;-47
2023/06/12 09:51:20;;;;;;;3.85;2.30;;;25.90;1.00;;;;;;4874591;29;20235;-48
2023/06/12 09:53:49;;;;;;;3.00;2.33;;;25.90;1.00;;;;;;4880841;29;20072;-46
2023/06/12 09:56:17;;;;;;;3.75;2.30;;;25.90;1.00;;;;;;4880907;29;20044;-46
2023/06/12 09:58:47;;;;;;;4.65;2.03;;;25.90;1.00;;;;;;4880809;29;20053;-47
2023/06/12 10:01:17;;;;;;;4.80;2.85;;;25.90;1.00;;;;;;4880755;29;20052;-47
2023/06/12 10:03:47;;;;;;;4.85;2.70;;;25.90;1.00;;;;;;4881499;29;20041;-46
2023/06/12 10:06:16;;;;;;;3.75;2.47;;;25.90;1.00;;;;;;4880919;29;20093;-48
2023/06/12 10:08:43;;;;;;;2.47;2.28;;;25.90;1.00;;;;;;4880688;29;20051;-47
2023/06/12 10:11:11;;;;;;;4.72;2.40;;;25.90;1.00;;;;;;4880784;29;20055;-46
2023/06/12 10:13:39;;;;;;;3.60;2.55;;;25.90;1.00;;;;;;4881085;29;20127;-52
2023/06/12 10:16:07;;;;;;;3.78;2.10;;;25.90;1.00;;;;;;4880780;29;20056;-46
2023/06/12 10:18:34;;;;;;;3.75;2.50;;;26.00;1.00;;;;;;4880662;29;20045;-47
2023/06/12 10:21:02;;;;;;;4.47;2.80;;;25.90;1.00;;;;;;4878984;29;20077;-47
2023/06/12 10:23:30;;;;;;;4.47;2.28;;;25.90;1.00;;;;;;4880027;29;20056;-46
2023/06/12 10:26:01;;;;;;;3.47;2.40;;;25.90;1.00;;;;;;4880539;29;20049;-47
2023/06/12 10:28:29;;;;;;;4.95;2.60;;;26.00;1.00;;;;;;4880112;29;20049;-46
2023/06/12 10:31:12;;;;;;;3.42;2.13;;;26.00;1.00;;;;;;4879947;29;20076;-47
2023/06/12 10:33:59;;;;;;;2.55;1.95;;;25.90;1.00;;;;;;4880496;29;20064;-50
2023/06/12 10:36:46;;;;;;;3.13;2.45;;;26.00;1.00;;;;;;4880004;29;20078;-47
2023/06/12 10:39:19;;;;;;;4.22;2.50;;;25.90;1.00;;;;;;4873225;29;20044;-49
2023/06/12 10:41:53;;;;;;;3.75;1.95;;;26.00;1.00;;;;;;4879843;29;20049;-46
2023/06/12 10:44:36;;;;;;;3.05;2.53;;;26.00;1.00;;;;;;4878798;29;20048;-47
2023/06/12 10:47:04;;;;;;;5.05;1.95;;;26.00;1.00;;;;;;4879000;29;20053;-48
2023/06/12 10:49:51;;;;;;;3.03;2.28;;;25.90;1.00;;;;;;4877825;29;20060;-49
2023/06/12 10:52:20;;;;;;;3.45;1.95;;;26.00;1.00;;;;;;4880031;29;20049;-50
2023/06/12 10:54:48;;;;;;;5.32;2.00;;;26.00;1.00;;;;;;4880131;29;20396;-50
2023/06/12 10:57:26;;;;;;;3.35;2.30;;;26.00;1.00;;;;;;4879964;29;20049;-47
2023/06/12 10:59:55;;;;;;;3.17;2.17;;;26.00;1.00;;;;;;4879944;29;20056;-46
2023/06/12 11:02:22;;;;;;;3.35;2.30;;;26.00;1.00;;;;;;4880022;29;20496;-49
2023/06/12 11:04:49;;;;;;;3.40;2.47;;;26.00;1.00;;;;;;4886364;29;20561;-50
2023/06/12 11:07:16;;;;;;;2.20;1.88;;;26.00;1.00;;;;;;4879251;29;20120;-48
2023/06/12 11:09:44;;;;;;;3.10;2.40;;;25.90;1.00;;;;;;4879748;29;20072;-49
2023/06/12 11:12:11;;;;;;;5.63;2.78;;;26.00;1.00;;;;;;4879749;29;20120;-48
2023/06/12 11:14:38;;;;;;;3.25;1.83;;;25.90;1.00;;;;;;4880028;29;20127;-48
2023/06/12 11:17:05;;;;;;;4.63;2.85;;;25.90;1.00;;;;;;4880143;29;20124;-49
2023/06/12 11:19:32;;;;;;;4.88;2.33;;;26.00;1.00;;;;;;4880273;29;20124;-48
2023/06/12 11:22:01;;;;;;;3.60;2.70;;;26.00;1.00;;;;;;4879860;29;20140;-47
2023/06/12 11:24:28;;;;;;;4.05;2.42;;;26.00;1.00;;;;;;4880311;29;20093;-49
2023/06/12 11:26:55;;;;;;;4.57;2.33;;;26.00;1.00;;;;;;4878709;29;20052;-52
2023/06/12 11:29:25;;;;;;;4.60;3.22;;;26.00;1.00;;;;;;4879631;29;20045;-49
2023/06/12 11:32:04;;;;;;;2.97;2.22;;;25.90;1.00;;;;;;4879363;29;20068;-49
2023/06/12 11:34:35;;;;;;;2.90;1.90;;;25.90;1.00;;;;;;4879736;29;20683;-49
2023/06/12 11:37:20;;;;;;;3.83;2.88;;;25.90;1.00;;;;;;4879738;29;20056;-52
2023/06/12 11:39:59;;;;;;;4.97;3.00;;;25.90;1.00;;;;;;4879340;29;20069;-47
2023/06/12 11:42:26;;;;;;;3.80;2.90;;;25.90;1.00;;;;;;4879498;29;20049;-49
2023/06/12 11:44:53;;;;;;;2.85;2.20;;;25.90;1.00;;;;;;4879350;29;20059;-49
2023/06/12 11:47:20;;;;;;;4.93;2.92;;;26.00;1.00;;;;;;4879526;29;20553;-52
2023/06/12 11:49:50;;;;;;;4.93;2.60;;;25.90;1.00;;;;;;4879458;29;20516;-51
2023/06/12 11:52:18;;;;;;;5.13;2.65;;;25.90;1.00;;;;;;4879479;29;20060;-51
2023/06/12 11:55:05;;;;;;;4.13;2.45;;;25.90;1.00;;;;;;4879484;29;20548;-50
2023/06/12 11:57:36;;;;;;;4.60;2.50;;;25.90;1.00;;;;;;4879245;29;20045;-47
2023/06/12 12:00:12;;;;;;;2.85;2.20;;;25.90;1.00;;;;;;4879370;29;20703;-49
2023/06/12 12:02:41;;;;;;;3.40;2.42;;;26.00;1.00;;;;;;4883384;29;20053;-48
2023/06/12 12:05:16;;;;;;;6.68;2.47;;;25.90;1.00;;;;;;4888848;29;20147;-48
2023/06/12 12:07:46;;;;;;;4.72;2.42;;;26.00;1.00;;;;;;4883000;29;20512;-48
2023/06/12 12:10:13;;;;;;;6.05;3.10;;;25.90;1.00;;;;;;4883207;29;20040;-52
2023/06/12 12:12:51;;;;;;;5.45;2.58;;;25.90;1.00;;;;;;4883152;29;20124;-48
2023/06/12 12:15:20;;;;;;;5.35;2.17;;;25.90;1.00;;;;;;4884010;29;20132;-48
2023/06/12 12:17:48;;;;;;;4.93;2.45;;;25.90;1.00;;;;;;4882006;29;20422;-49
2023/06/12 12:20:22;;;;;;;4.65;2.53;;;25.90;1.00;;;;;;4883250;29;20057;-49
2023/06/12 12:22:51;;;;;;;5.00;2.67;;;25.90;1.00;;;;;;4883220;29;20458;-50
2023/06/12 12:25:22;;;;;;;4.57;2.33;;;25.90;1.00;;;;;;4883105;29;20052;-48
2023/06/12 12:27:51;;;;;;;6.32;2.22;;;25.90;1.00;;;;;;4883139;29;20059;-47
2023/06/12 12:30:21;;;;;;;3.17;2.78;;;25.90;1.00;;;;;;4875720;29;20751;-50
2023/06/12 12:32:51;;;;;;;8.40;2.45;;;25.90;1.00;;;;;;4882472;29;20080;-48
2023/06/12 12:35:19;;;;;;;5.70;2.75;;;25.90;1.00;;;;;;4876046;29;20131;-49
2023/06/12 12:37:47;;;;;;;3.45;2.15;;;25.90;1.00;;;;;;4882871;29;20068;-47
2023/06/12 12:40:15;;;;;;;3.92;2.13;;;25.90;1.00;;;;;;4881426;29;20053;-47
2023/06/12 12:42:46;;;;;;;4.07;2.10;;;25.90;1.00;;;;;;4882783;29;20532;-48
2023/06/12 12:45:15;;;;;;;4.07;2.63;;;25.90;1.00;;;;;;4883237;29;20040;-52
2023/06/12 12:47:49;;;;;;;4.20;2.72;;;25.90;1.00;;;;;;4883185;29;20494;-48
2023/06/12 12:50:18;;;;;;;4.20;2.70;;;25.90;1.00;;;;;;4882208;29;20049;-48
2023/06/12 12:52:49;;;;;;;4.35;2.58;;;25.90;1.00;;;;;;4882546;29;20049;-46
2023/06/12 12:55:17;;;;;;;4.75;2.60;;;25.90;1.00;;;;;;4874110;29;20061;-46
2023/06/12 12:57:44;;;;;;;4.38;2.85;;;25.90;1.00;;;;;;4883083;29;20132;-49
2023/06/12 13:00:17;;;;;;;3.80;2.90;;;25.90;1.00;;;;;;4882719;29;20053;-50
2023/06/12 13:02:45;;;;;;;3.88;2.58;;;25.90;1.00;;;;;;4881668;29;20549;-47
2023/06/12 13:05:14;;;;;;;3.58;2.47;;;25.90;1.00;;;;;;4890127;29;20048;-47
2023/06/12 13:07:42;;;;;;;5.63;2.47;;;25.90;1.00;;;;;;4882945;29;20068;-47
2023/06/12 13:10:12;;;;;;;3.70;2.20;;;25.90;1.00;;;;;;4883898;29;20411;-48